Aérodrome :
LOGIN :

S'inscrire | Disclaimer

   EN    FR    IT 

 










Légende :    VFR   VFR Marginal   IFR   IFR Intensif   IFR Très Intensif
Visi : 
Plafond : 
>= 8 km
>= 3000ft
5 à 8 km
1000 à 3000 ft
1500m à 5 km
500 à 1000 ft
800 à 1500m
200 à 500 ft
< 800m
< 200 ft
Symboles :   Orages  Brouillard  Fortes neiges  Fortes précipitations  Vent > 20 kt
SIGMETs :   Divers  Orages  Givrage  Turbulence  Onde Orograph.  Cendres Volcan.






- Altitude de l'aérodrome : 464 ft
- Code IATA : EVX


LFOE - Evreux

DERNIER METAR :
  • 032030Z AUTO 23004KT CAVOK 16/09 Q1020 NOSIG

METARs EXPIRÉS :
  • 032000Z AUTO 23003KT CAVOK 17/09 Q1020 NOSIG
  • 031930Z AUTO 25005KT CAVOK 18/09 Q1020 NOSIG
  • 031900Z AUTO 24007KT CAVOK 19/09 Q1020 NOSIG
  • 031830Z AUTO 26008KT CAVOK 20/09 Q1020 NOSIG
  • 031800Z AUTO 27009KT 230V300 CAVOK 21/09 Q1020 NOSIG

TAF TAF LFOE
Valide du 03 à 21h jusqu'au 04 à 21h UTC


032000Z 0321/0421 22010KT 9999 BKN045
BECMG 0400/0403 22010G22KT SCT018 BKN045
BECMG 0403/0406 22015G25KT 4000 -RA BKN014
PROB40
TEMPO 0406/0409 2500 RADZ BKN008
BECMG 0409/0411 8000 NSW BKN020
PROB30
TEMPO 0413/0421 4000 -RA



MET'MAP, la Météo Aéronautique d'un coup d'oeil ! - Copyright ORBIFLY Décembre 2007 - Disclaimer

ORBIFLY MET'MAP TEAM :

Programmation & Développement : Alexandra Zaïnal
Sur une idée originale de : Baudouin d'Aumeries
Assistance à la programmation : Marc-Olivier Méhu
Soutien technique & logistique : Manuel Goepfert

Contact : metmap@orbifly.com




SOURCES & CREDITS :

   NOAA